sensor_id;sensor_type;location;lat;lon;timestamp;temperature;humidity
9414;DHT22;4746;35.664;139.738;2023-03-12T00:01:22;15.90;99.90
9414;DHT22;4746;35.664;139.738;2023-03-12T00:03:52;16.00;99.90
9414;DHT22;4746;35.664;139.738;2023-03-12T00:06:20;16.00;99.90
9414;DHT22;4746;35.664;139.738;2023-03-12T00:08:48;16.10;99.90
9414;DHT22;4746;35.664;139.738;2023-03-12T00:11:18;16.20;99.90
9414;DHT22;4746;35.664;139.738;2023-03-12T00:13:54;16.20;99.90
9414;DHT22;4746;35.664;139.738;2023-03-12T00:16:23;16.40;99.90
9414;DHT22;4746;35.664;139.738;2023-03-12T00:18:54;16.40;99.90
9414;DHT22;4746;35.664;139.738;2023-03-12T00:21:22;16.60;99.90
9414;DHT22;4746;35.664;139.738;2023-03-12T00:23:51;16.70;99.90
9414;DHT22;4746;35.664;139.738;2023-03-12T00:26:20;16.90;99.90
9414;DHT22;4746;35.664;139.738;2023-03-12T00:28:48;17.00;99.90
9414;DHT22;4746;35.664;139.738;2023-03-12T00:31:23;17.10;99.90
9414;DHT22;4746;35.664;139.738;2023-03-12T00:33:53;17.30;99.90
9414;DHT22;4746;35.664;139.738;2023-03-12T00:36:23;17.40;99.90
9414;DHT22;4746;35.664;139.738;2023-03-12T00:38:53;17.50;99.90
9414;DHT22;4746;35.664;139.738;2023-03-12T00:41:23;17.60;99.90
9414;DHT22;4746;35.664;139.738;2023-03-12T00:43:52;17.80;99.90
9414;DHT22;4746;35.664;139.738;2023-03-12T00:46:19;17.80;99.90
9414;DHT22;4746;35.664;139.738;2023-03-12T00:48:48;17.90;99.90
9414;DHT22;4746;35.664;139.738;2023-03-12T00:51:15;17.80;99.90
9414;DHT22;4746;35.664;139.738;2023-03-12T00:53:43;17.80;99.90
9414;DHT22;4746;35.664;139.738;2023-03-12T00:56:11;18.00;99.90
9414;DHT22;4746;35.664;139.738;2023-03-12T00:58:39;18.20;99.90
9414;DHT22;4746;35.664;139.738;2023-03-12T01:01:10;18.30;99.90
9414;DHT22;4746;35.664;139.738;2023-03-12T01:03:37;18.50;99.90
9414;DHT22;4746;35.664;139.738;2023-03-12T01:06:06;18.60;99.90
9414;DHT22;4746;35.664;139.738;2023-03-12T01:08:33;18.80;99.90
9414;DHT22;4746;35.664;139.738;2023-03-12T01:11:01;18.90;99.90
9414;DHT22;4746;35.664;139.738;2023-03-12T01:16:28;19.10;99.90
9414;DHT22;4746;35.664;139.738;2023-03-12T01:18:57;19.30;99.90
9414;DHT22;4746;35.664;139.738;2023-03-12T01:21:27;19.30;99.90
9414;DHT22;4746;35.664;139.738;2023-03-12T01:23:56;19.30;99.90
9414;DHT22;4746;35.664;139.738;2023-03-12T01:26:26;19.20;99.90
9414;DHT22;4746;35.664;139.738;2023-03-12T01:28:54;19.10;99.90
9414;DHT22;4746;35.664;139.738;2023-03-12T01:31:21;18.90;99.90
9414;DHT22;4746;35.664;139.738;2023-03-12T01:33:51;18.90;99.90
9414;DHT22;4746;35.664;139.738;2023-03-12T01:36:26;18.90;99.90
9414;DHT22;4746;35.664;139.738;2023-03-12T01:38:58;19.00;99.90
9414;DHT22;4746;35.664;139.738;2023-03-12T01:41:28;19.10;99.90
9414;DHT22;4746;35.664;139.738;2023-03-12T01:43:59;19.20;99.90
9414;DHT22;4746;35.664;139.738;2023-03-12T01:49:25;19.10;99.90
9414;DHT22;4746;35.664;139.738;2023-03-12T01:52:05;19.20;99.90
9414;DHT22;4746;35.664;139.738;2023-03-12T01:58:04;19.50;99.90
9414;DHT22;4746;35.664;139.738;2023-03-12T02:00:33;19.70;99.80
9414;DHT22;4746;35.664;139.738;2023-03-12T02:03:06;19.70;99.90
9414;DHT22;4746;35.664;139.738;2023-03-12T02:06:00;19.80;99.90
9414;DHT22;4746;35.664;139.738;2023-03-12T02:08:43;19.90;99.30
9414;DHT22;4746;35.664;139.738;2023-03-12T02:11:13;19.90;99.10
9414;DHT22;4746;35.664;139.738;2023-03-12T02:13:40;20.00;99.00
9414;DHT22;4746;35.664;139.738;2023-03-12T02:16:08;20.00;98.90
9414;DHT22;4746;35.664;139.738;2023-03-12T02:18:36;20.10;98.50
9414;DHT22;4746;35.664;139.738;2023-03-12T02:26:29;20.20;96.90
9414;DHT22;4746;35.664;139.738;2023-03-12T02:28:59;20.20;96.60
9414;DHT22;4746;35.664;139.738;2023-03-12T02:31:32;20.20;96.50
9414;DHT22;4746;35.664;139.738;2023-03-12T02:34:06;20.30;96.20
9414;DHT22;4746;35.664;139.738;2023-03-12T02:36:35;20.30;96.30
9414;DHT22;4746;35.664;139.738;2023-03-12T02:39:03;20.30;95.80
9414;DHT22;4746;35.664;139.738;2023-03-12T02:41:37;20.40;95.90
9414;DHT22;4746;35.664;139.738;2023-03-12T02:44:29;20.40;95.60
9414;DHT22;4746;35.664;139.738;2023-03-12T02:46:59;20.40;95.50
9414;DHT22;4746;35.664;139.738;2023-03-12T02:49:30;20.50;95.40
9414;DHT22;4746;35.664;139.738;2023-03-12T02:52:00;20.50;95.20
9414;DHT22;4746;35.664;139.738;2023-03-12T02:54:29;20.60;95.20
9414;DHT22;4746;35.664;139.738;2023-03-12T02:56:57;20.60;95.30
9414;DHT22;4746;35.664;139.738;2023-03-12T02:59:24;20.70;95.30
9414;DHT22;4746;35.664;139.738;2023-03-12T03:01:58;20.80;95.10
9414;DHT22;4746;35.664;139.738;2023-03-12T03:04:28;20.90;94.90
9414;DHT22;4746;35.664;139.738;2023-03-12T03:06:57;21.00;95.10
9414;DHT22;4746;35.664;139.738;2023-03-12T03:09:25;21.10;95.30
9414;DHT22;4746;35.664;139.738;2023-03-12T03:11:53;21.20;94.90
9414;DHT22;4746;35.664;139.738;2023-03-12T03:14:20;21.40;94.80
9414;DHT22;4746;35.664;139.738;2023-03-12T03:16:48;21.50;94.50
9414;DHT22;4746;35.664;139.738;2023-03-12T03:19:16;21.60;94.20
9414;DHT22;4746;35.664;139.738;2023-03-12T03:21:44;21.70;93.90
9414;DHT22;4746;35.664;139.738;2023-03-12T03:24:12;21.80;93.90
9414;DHT22;4746;35.664;139.738;2023-03-12T03:26:40;21.80;93.60
9414;DHT22;4746;35.664;139.738;2023-03-12T03:29:08;21.80;93.80
9414;DHT22;4746;35.664;139.738;2023-03-12T03:31:35;21.90;93.50
9414;DHT22;4746;35.664;139.738;2023-03-12T03:34:03;22.00;93.20
9414;DHT22;4746;35.664;139.738;2023-03-12T03:36:31;22.10;92.90
9414;DHT22;4746;35.664;139.738;2023-03-12T03:39:00;22.10;93.50
9414;DHT22;4746;35.664;139.738;2023-03-12T03:41:27;22.20;93.00
9414;DHT22;4746;35.664;139.738;2023-03-12T03:43:58;22.30;93.70
9414;DHT22;4746;35.664;139.738;2023-03-12T03:46:26;22.30;92.20
9414;DHT22;4746;35.664;139.738;2023-03-12T03:48:53;22.30;92.80
9414;DHT22;4746;35.664;139.738;2023-03-12T03:51:23;22.40;91.60
9414;DHT22;4746;35.664;139.738;2023-03-12T03:53:51;22.50;91.60
9414;DHT22;4746;35.664;139.738;2023-03-12T03:56:19;22.60;90.50
9414;DHT22;4746;35.664;139.738;2023-03-12T03:58:47;22.70;88.90
9414;DHT22;4746;35.664;139.738;2023-03-12T04:01:15;22.60;86.90
9414;DHT22;4746;35.664;139.738;2023-03-12T04:03:43;22.40;87.70
9414;DHT22;4746;35.664;139.738;2023-03-12T04:06:11;22.30;86.70
9414;DHT22;4746;35.664;139.738;2023-03-12T04:08:38;22.40;87.50
9414;DHT22;4746;35.664;139.738;2023-03-12T04:11:12;22.40;88.90
9414;DHT22;4746;35.664;139.738;2023-03-12T04:13:44;22.30;88.00
9414;DHT22;4746;35.664;139.738;2023-03-12T04:16:12;22.20;87.20
9414;DHT22;4746;35.664;139.738;2023-03-12T04:18:41;22.20;86.30
9414;DHT22;4746;35.664;139.738;2023-03-12T04:21:10;22.20;85.90
9414;DHT22;4746;35.664;139.738;2023-03-12T04:23:38;22.20;86.00
9414;DHT22;4746;35.664;139.738;2023-03-12T04:26:08;22.10;85.60
9414;DHT22;4746;35.664;139.738;2023-03-12T04:28:36;22.10;85.50
9414;DHT22;4746;35.664;139.738;2023-03-12T04:31:06;22.00;84.30
9414;DHT22;4746;35.664;139.738;2023-03-12T04:33:37;21.90;81.30
9414;DHT22;4746;35.664;139.738;2023-03-12T04:36:07;21.70;80.70
9414;DHT22;4746;35.664;139.738;2023-03-12T04:38:35;21.60;80.10
9414;DHT22;4746;35.664;139.738;2023-03-12T04:41:09;21.50;80.30
9414;DHT22;4746;35.664;139.738;2023-03-12T04:43:41;21.50;80.60
9414;DHT22;4746;35.664;139.738;2023-03-12T04:46:09;21.40;81.30
9414;DHT22;4746;35.664;139.738;2023-03-12T04:48:37;21.40;81.90
9414;DHT22;4746;35.664;139.738;2023-03-12T04:51:05;21.30;81.50
9414;DHT22;4746;35.664;139.738;2023-03-12T04:53:33;21.30;81.90
9414;DHT22;4746;35.664;139.738;2023-03-12T04:56:01;21.40;82.40
9414;DHT22;4746;35.664;139.738;2023-03-12T04:58:28;21.50;82.80
9414;DHT22;4746;35.664;139.738;2023-03-12T05:00:56;21.60;82.90
9414;DHT22;4746;35.664;139.738;2023-03-12T05:03:24;21.80;82.50
9414;DHT22;4746;35.664;139.738;2023-03-12T05:05:54;21.90;82.20
9414;DHT22;4746;35.664;139.738;2023-03-12T05:08:21;22.10;82.60
9414;DHT22;4746;35.664;139.738;2023-03-12T05:10:49;22.30;81.20
9414;DHT22;4746;35.664;139.738;2023-03-12T05:13:19;22.40;80.30
9414;DHT22;4746;35.664;139.738;2023-03-12T05:15:48;22.50;79.10
9414;DHT22;4746;35.664;139.738;2023-03-12T05:18:17;22.40;78.70
9414;DHT22;4746;35.664;139.738;2023-03-12T05:20:56;22.40;78.30
9414;DHT22;4746;35.664;139.738;2023-03-12T05:23:43;22.30;78.70
9414;DHT22;4746;35.664;139.738;2023-03-12T05:26:23;22.20;78.80
9414;DHT22;4746;35.664;139.738;2023-03-12T05:28:53;22.00;78.70
9414;DHT22;4746;35.664;139.738;2023-03-12T05:31:21;21.70;79.40
9414;DHT22;4746;35.664;139.738;2023-03-12T05:33:49;21.60;80.30
9414;DHT22;4746;35.664;139.738;2023-03-12T05:36:17;21.60;80.40
9414;DHT22;4746;35.664;139.738;2023-03-12T05:38:45;21.60;80.50
9414;DHT22;4746;35.664;139.738;2023-03-12T05:41:22;21.50;80.90
9414;DHT22;4746;35.664;139.738;2023-03-12T05:43:54;21.30;81.80
9414;DHT22;4746;35.664;139.738;2023-03-12T05:46:24;21.20;82.20
9414;DHT22;4746;35.664;139.738;2023-03-12T05:48:52;21.20;82.60
9414;DHT22;4746;35.664;139.738;2023-03-12T05:51:20;21.00;82.90
9414;DHT22;4746;35.664;139.738;2023-03-12T05:53:48;20.90;83.40
9414;DHT22;4746;35.664;139.738;2023-03-12T05:56:16;20.70;84.00
9414;DHT22;4746;35.664;139.738;2023-03-12T05:58:46;20.70;85.00
9414;DHT22;4746;35.664;139.738;2023-03-12T06:01:23;20.50;85.40
9414;DHT22;4746;35.664;139.738;2023-03-12T06:03:53;20.40;85.70
9414;DHT22;4746;35.664;139.738;2023-03-12T06:06:22;20.40;86.50
9414;DHT22;4746;35.664;139.738;2023-03-12T06:08:50;20.30;87.20
9414;DHT22;4746;35.664;139.738;2023-03-12T06:11:18;20.20;87.80
9414;DHT22;4746;35.664;139.738;2023-03-12T06:13:48;20.10;89.00
9414;DHT22;4746;35.664;139.738;2023-03-12T06:16:21;20.10;89.60
9414;DHT22;4746;35.664;139.738;2023-03-12T06:18:55;20.10;90.30
9414;DHT22;4746;35.664;139.738;2023-03-12T06:21:27;20.00;90.70
9414;DHT22;4746;35.664;139.738;2023-03-12T06:23:57;20.00;91.20
9414;DHT22;4746;35.664;139.738;2023-03-12T06:26:26;19.90;91.90
9414;DHT22;4746;35.664;139.738;2023-03-12T06:28:54;19.90;92.70
9414;DHT22;4746;35.664;139.738;2023-03-12T06:31:22;19.80;93.20
9414;DHT22;4746;35.664;139.738;2023-03-12T06:33:50;19.80;92.90
9414;DHT22;4746;35.664;139.738;2023-03-12T06:36:21;19.80;93.10
9414;DHT22;4746;35.664;139.738;2023-03-12T06:38:49;19.70;93.40
9414;DHT22;4746;35.664;139.738;2023-03-12T06:41:18;19.70;93.40
9414;DHT22;4746;35.664;139.738;2023-03-12T06:43:46;19.60;94.10
9414;DHT22;4746;35.664;139.738;2023-03-12T06:46:17;19.60;94.60
9414;DHT22;4746;35.664;139.738;2023-03-12T06:48:50;19.50;94.90
9414;DHT22;4746;35.664;139.738;2023-03-12T06:51:18;19.30;95.00
9414;DHT22;4746;35.664;139.738;2023-03-12T06:53:47;19.30;94.80
9414;DHT22;4746;35.664;139.738;2023-03-12T06:56:15;19.10;95.60
9414;DHT22;4746;35.664;139.738;2023-03-12T06:58:43;19.10;96.50
9414;DHT22;4746;35.664;139.738;2023-03-12T07:01:10;19.00;98.20
9414;DHT22;4746;35.664;139.738;2023-03-12T07:03:38;19.00;99.00
9414;DHT22;4746;35.664;139.738;2023-03-12T07:06:15;18.90;99.90
9414;DHT22;4746;35.664;139.738;2023-03-12T07:08:45;18.90;99.90
9414;DHT22;4746;35.664;139.738;2023-03-12T07:11:14;18.70;99.90
9414;DHT22;4746;35.664;139.738;2023-03-12T07:13:43;18.70;99.90
9414;DHT22;4746;35.664;139.738;2023-03-12T07:16:11;18.60;99.90
9414;DHT22;4746;35.664;139.738;2023-03-12T07:18:38;18.50;99.90
9414;DHT22;4746;35.664;139.738;2023-03-12T07:21:06;18.40;99.90
9414;DHT22;4746;35.664;139.738;2023-03-12T07:23:34;18.30;99.90
9414;DHT22;4746;35.664;139.738;2023-03-12T07:26:04;18.20;99.90
9414;DHT22;4746;35.664;139.738;2023-03-12T07:28:32;18.10;99.90
9414;DHT22;4746;35.664;139.738;2023-03-12T07:31:01;18.10;99.90
9414;DHT22;4746;35.664;139.738;2023-03-12T07:33:30;18.10;99.90
9414;DHT22;4746;35.664;139.738;2023-03-12T07:35:58;18.10;99.90
9414;DHT22;4746;35.664;139.738;2023-03-12T07:38:26;18.10;99.90
9414;DHT22;4746;35.664;139.738;2023-03-12T07:40:55;18.00;99.90
9414;DHT22;4746;35.664;139.738;2023-03-12T07:43:24;18.00;99.90
9414;DHT22;4746;35.664;139.738;2023-03-12T07:45:53;18.00;99.90
9414;DHT22;4746;35.664;139.738;2023-03-12T07:48:20;18.00;99.90
9414;DHT22;4746;35.664;139.738;2023-03-12T07:50:48;18.00;99.90
9414;DHT22;4746;35.664;139.738;2023-03-12T07:53:17;17.90;99.90
9414;DHT22;4746;35.664;139.738;2023-03-12T07:55:46;17.90;99.90
9414;DHT22;4746;35.664;139.738;2023-03-12T07:58:20;17.80;99.90
9414;DHT22;4746;35.664;139.738;2023-03-12T08:00:51;17.80;99.90
9414;DHT22;4746;35.664;139.738;2023-03-12T08:03:35;17.70;99.90
9414;DHT22;4746;35.664;139.738;2023-03-12T08:06:07;17.70;99.90
9414;DHT22;4746;35.664;139.738;2023-03-12T08:08:36;17.70;99.90
9414;DHT22;4746;35.664;139.738;2023-03-12T08:11:07;17.50;99.90
9414;DHT22;4746;35.664;139.738;2023-03-12T08:16:11;17.50;99.90
9414;DHT22;4746;35.664;139.738;2023-03-12T08:18:42;17.40;99.90
9414;DHT22;4746;35.664;139.738;2023-03-12T08:21:19;17.40;99.90
9414;DHT22;4746;35.664;139.738;2023-03-12T08:23:49;17.30;99.90
9414;DHT22;4746;35.664;139.738;2023-03-12T08:26:17;17.30;99.90
9414;DHT22;4746;35.664;139.738;2023-03-12T08:28:44;17.30;99.90
9414;DHT22;4746;35.664;139.738;2023-03-12T08:31:12;17.30;99.90
9414;DHT22;4746;35.664;139.738;2023-03-12T08:33:41;17.30;99.90
9414;DHT22;4746;35.664;139.738;2023-03-12T08:36:15;17.20;99.90
9414;DHT22;4746;35.664;139.738;2023-03-12T08:38:46;17.10;99.90
9414;DHT22;4746;35.664;139.738;2023-03-12T08:41:13;17.00;99.90
9414;DHT22;4746;35.664;139.738;2023-03-12T08:43:43;17.00;99.90
9414;DHT22;4746;35.664;139.738;2023-03-12T08:46:17;17.00;99.90
9414;DHT22;4746;35.664;139.738;2023-03-12T08:48:45;17.00;99.90
9414;DHT22;4746;35.664;139.738;2023-03-12T08:51:27;17.00;99.90
9414;DHT22;4746;35.664;139.738;2023-03-12T08:53:58;16.90;99.90
9414;DHT22;4746;35.664;139.738;2023-03-12T08:56:26;16.90;99.90
9414;DHT22;4746;35.664;139.738;2023-03-12T08:58:53;16.90;99.90
9414;DHT22;4746;35.664;139.738;2023-03-12T09:01:25;16.80;99.90
9414;DHT22;4746;35.664;139.738;2023-03-12T09:04:10;16.80;99.90
9414;DHT22;4746;35.664;139.738;2023-03-12T09:06:42;16.80;99.90
9414;DHT22;4746;35.664;139.738;2023-03-12T09:09:12;16.80;99.90
9414;DHT22;4746;35.664;139.738;2023-03-12T09:11:40;16.70;99.90
9414;DHT22;4746;35.664;139.738;2023-03-12T09:14:12;16.70;99.90
9414;DHT22;4746;35.664;139.738;2023-03-12T09:16:45;16.70;99.90
9414;DHT22;4746;35.664;139.738;2023-03-12T09:19:16;16.60;99.90
9414;DHT22;4746;35.664;139.738;2023-03-12T09:21:43;16.60;99.90
9414;DHT22;4746;35.664;139.738;2023-03-12T09:24:11;16.60;99.90
9414;DHT22;4746;35.664;139.738;2023-03-12T09:26:40;16.70;99.90
9414;DHT22;4746;35.664;139.738;2023-03-12T09:29:08;16.70;99.90
9414;DHT22;4746;35.664;139.738;2023-03-12T09:31:37;16.60;99.90
9414;DHT22;4746;35.664;139.738;2023-03-12T09:34:05;16.60;99.90
9414;DHT22;4746;35.664;139.738;2023-03-12T09:36:36;16.60;99.90
9414;DHT22;4746;35.664;139.738;2023-03-12T09:39:04;16.60;99.90
9414;DHT22;4746;35.664;139.738;2023-03-12T09:41:37;16.50;99.90
9414;DHT22;4746;35.664;139.738;2023-03-12T09:44:35;16.50;99.90
9414;DHT22;4746;35.664;139.738;2023-03-12T09:47:40;16.50;99.90
9414;DHT22;4746;35.664;139.738;2023-03-12T09:50:19;16.50;99.90
9414;DHT22;4746;35.664;139.738;2023-03-12T09:53:13;16.60;99.90
9414;DHT22;4746;35.664;139.738;2023-03-12T09:56:12;16.60;99.90
9414;DHT22;4746;35.664;139.738;2023-03-12T09:58:46;16.70;99.90
9414;DHT22;4746;35.664;139.738;2023-03-12T10:04:31;16.80;99.90
9414;DHT22;4746;35.664;139.738;2023-03-12T10:07:47;16.80;99.90
9414;DHT22;4746;35.664;139.738;2023-03-12T10:16:42;16.80;99.90
9414;DHT22;4746;35.664;139.738;2023-03-12T10:19:32;16.90;99.90
9414;DHT22;4746;35.664;139.738;2023-03-12T10:22:21;16.80;99.90
9414;DHT22;4746;35.664;139.738;2023-03-12T10:27:43;16.70;99.90
9414;DHT22;4746;35.664;139.738;2023-03-12T10:30:23;16.60;99.90
9414;DHT22;4746;35.664;139.738;2023-03-12T10:38:17;16.60;99.90
9414;DHT22;4746;35.664;139.738;2023-03-12T10:40:50;16.50;99.90
9414;DHT22;4746;35.664;139.738;2023-03-12T10:43:17;16.50;99.90
9414;DHT22;4746;35.664;139.738;2023-03-12T10:49:24;16.50;99.90
9414;DHT22;4746;35.664;139.738;2023-03-12T10:51:56;16.50;99.90
9414;DHT22;4746;35.664;139.738;2023-03-12T10:54:40;16.50;99.90
9414;DHT22;4746;35.664;139.738;2023-03-12T10:57:11;16.50;99.90
9414;DHT22;4746;35.664;139.738;2023-03-12T10:59:47;16.40;99.90
9414;DHT22;4746;35.664;139.738;2023-03-12T11:04:53;16.40;99.90
9414;DHT22;4746;35.664;139.738;2023-03-12T11:07:33;16.40;99.90
9414;DHT22;4746;35.664;139.738;2023-03-12T11:12:55;16.40;99.90
9414;DHT22;4746;35.664;139.738;2023-03-12T11:15:47;16.50;99.90
9414;DHT22;4746;35.664;139.738;2023-03-12T11:18:20;16.40;99.90
9414;DHT22;4746;35.664;139.738;2023-03-12T11:20:56;16.50;99.90
9414;DHT22;4746;35.664;139.738;2023-03-12T11:23:41;16.50;99.90
9414;DHT22;4746;35.664;139.738;2023-03-12T11:26:19;16.50;99.90
9414;DHT22;4746;35.664;139.738;2023-03-12T11:28:58;16.50;99.90
9414;DHT22;4746;35.664;139.738;2023-03-12T11:31:49;16.50;99.90
9414;DHT22;4746;35.664;139.738;2023-03-12T11:34:43;16.60;99.90
9414;DHT22;4746;35.664;139.738;2023-03-12T11:38:06;16.60;99.90
9414;DHT22;4746;35.664;139.738;2023-03-12T11:47:12;16.50;99.90
9414;DHT22;4746;35.664;139.738;2023-03-12T11:53:38;16.50;99.90
9414;DHT22;4746;35.664;139.738;2023-03-12T11:56:32;16.50;99.90
9414;DHT22;4746;35.664;139.738;2023-03-12T12:02:57;16.40;99.90
9414;DHT22;4746;35.664;139.738;2023-03-12T12:09:14;16.40;99.90
9414;DHT22;4746;35.664;139.738;2023-03-12T12:33:54;16.20;99.90
9414;DHT22;4746;35.664;139.738;2023-03-12T12:39:49;16.20;99.90
9414;DHT22;4746;35.664;139.738;2023-03-12T12:45:37;16.20;99.90
9414;DHT22;4746;35.664;139.738;2023-03-12T12:48:21;16.20;99.90
9414;DHT22;4746;35.664;139.738;2023-03-12T12:51:34;16.20;99.90
9414;DHT22;4746;35.664;139.738;2023-03-12T12:54:56;16.20;99.90
9414;DHT22;4746;35.664;139.738;2023-03-12T13:00:55;16.20;99.90
9414;DHT22;4746;35.664;139.738;2023-03-12T13:03:46;16.20;99.90
9414;DHT22;4746;35.664;139.738;2023-03-12T13:06:16;16.20;99.90
9414;DHT22;4746;35.664;139.738;2023-03-12T13:11:48;16.20;99.90
9414;DHT22;4746;35.664;139.738;2023-03-12T13:14:33;16.20;99.90
9414;DHT22;4746;35.664;139.738;2023-03-12T13:19:53;16.30;99.90
9414;DHT22;4746;35.664;139.738;2023-03-12T13:29:11;16.20;99.90
9414;DHT22;4746;35.664;139.738;2023-03-12T13:31:46;16.20;99.90
9414;DHT22;4746;35.664;139.738;2023-03-12T13:37:10;16.20;99.90
9414;DHT22;4746;35.664;139.738;2023-03-12T13:39:44;16.20;99.90
9414;DHT22;4746;35.664;139.738;2023-03-12T13:42:25;16.20;99.90
9414;DHT22;4746;35.664;139.738;2023-03-12T13:45:31;16.20;99.90
9414;DHT22;4746;35.664;139.738;2023-03-12T13:48:02;16.10;99.90
9414;DHT22;4746;35.664;139.738;2023-03-12T13:50:30;16.10;99.90
9414;DHT22;4746;35.664;139.738;2023-03-12T13:53:05;16.10;99.90
9414;DHT22;4746;35.664;139.738;2023-03-12T13:55:42;16.10;99.90
9414;DHT22;4746;35.664;139.738;2023-03-12T13:58:16;16.10;99.90
9414;DHT22;4746;35.664;139.738;2023-03-12T14:01:03;16.00;99.90
9414;DHT22;4746;35.664;139.738;2023-03-12T14:03:38;16.10;99.90
9414;DHT22;4746;35.664;139.738;2023-03-12T14:06:21;16.00;99.90
9414;DHT22;4746;35.664;139.738;2023-03-12T14:12:05;16.00;99.90
9414;DHT22;4746;35.664;139.738;2023-03-12T14:15:06;16.00;99.90
9414;DHT22;4746;35.664;139.738;2023-03-12T14:18:00;16.00;99.90
9414;DHT22;4746;35.664;139.738;2023-03-12T14:20:40;16.00;99.90
9414;DHT22;4746;35.664;139.738;2023-03-12T14:23:15;15.90;99.90
9414;DHT22;4746;35.664;139.738;2023-03-12T14:25:45;16.00;99.90
9414;DHT22;4746;35.664;139.738;2023-03-12T14:28:24;15.90;99.90
9414;DHT22;4746;35.664;139.738;2023-03-12T14:33:51;15.90;99.90
9414;DHT22;4746;35.664;139.738;2023-03-12T14:43:01;16.00;99.90
9414;DHT22;4746;35.664;139.738;2023-03-12T14:45:44;16.00;99.90
9414;DHT22;4746;35.664;139.738;2023-03-12T14:48:11;16.00;99.90
9414;DHT22;4746;35.664;139.738;2023-03-12T14:50:40;16.00;99.90
9414;DHT22;4746;35.664;139.738;2023-03-12T14:53:28;16.00;99.90
9414;DHT22;4746;35.664;139.738;2023-03-12T14:58:57;16.00;99.90
9414;DHT22;4746;35.664;139.738;2023-03-12T15:01:29;16.00;99.90
9414;DHT22;4746;35.664;139.738;2023-03-12T15:04:05;16.10;99.90
9414;DHT22;4746;35.664;139.738;2023-03-12T15:06:46;16.10;99.90
9414;DHT22;4746;35.664;139.738;2023-03-12T15:09:25;16.10;99.90
9414;DHT22;4746;35.664;139.738;2023-03-12T15:14:51;16.10;99.90
9414;DHT22;4746;35.664;139.738;2023-03-12T15:17:29;16.10;99.90
9414;DHT22;4746;35.664;139.738;2023-03-12T15:19:58;16.20;99.90
9414;DHT22;4746;35.664;139.738;2023-03-12T15:22:35;16.20;99.90
9414;DHT22;4746;35.664;139.738;2023-03-12T15:25:24;16.10;99.90
9414;DHT22;4746;35.664;139.738;2023-03-12T15:28:24;16.20;99.90
9414;DHT22;4746;35.664;139.738;2023-03-12T15:31:11;16.10;99.90
9414;DHT22;4746;35.664;139.738;2023-03-12T15:33:43;16.10;99.90
9414;DHT22;4746;35.664;139.738;2023-03-12T15:38:58;16.10;99.90
9414;DHT22;4746;35.664;139.738;2023-03-12T15:41:48;16.10;99.90
9414;DHT22;4746;35.664;139.738;2023-03-12T15:44:25;16.10;99.90
9414;DHT22;4746;35.664;139.738;2023-03-12T15:47:13;16.10;99.90
9414;DHT22;4746;35.664;139.738;2023-03-12T15:49:49;16.10;99.90
9414;DHT22;4746;35.664;139.738;2023-03-12T15:52:31;16.10;99.90
9414;DHT22;4746;35.664;139.738;2023-03-12T15:55:04;16.00;99.90
9414;DHT22;4746;35.664;139.738;2023-03-12T15:57:52;16.00;99.90
9414;DHT22;4746;35.664;139.738;2023-03-12T16:00:29;16.00;99.90
9414;DHT22;4746;35.664;139.738;2023-03-12T16:03:15;16.00;99.90
9414;DHT22;4746;35.664;139.738;2023-03-12T16:05:45;16.00;99.90
9414;DHT22;4746;35.664;139.738;2023-03-12T16:08:19;16.00;99.90
9414;DHT22;4746;35.664;139.738;2023-03-12T16:10:55;16.00;99.90
9414;DHT22;4746;35.664;139.738;2023-03-12T16:13:28;16.00;99.90
9414;DHT22;4746;35.664;139.738;2023-03-12T16:15:58;16.00;99.90
9414;DHT22;4746;35.664;139.738;2023-03-12T16:18:26;15.90;99.90
9414;DHT22;4746;35.664;139.738;2023-03-12T16:20:53;15.90;99.90
9414;DHT22;4746;35.664;139.738;2023-03-12T16:23:21;15.90;99.90
9414;DHT22;4746;35.664;139.738;2023-03-12T16:25:51;15.90;99.90
9414;DHT22;4746;35.664;139.738;2023-03-12T16:28:23;15.90;99.90
9414;DHT22;4746;35.664;139.738;2023-03-12T16:30:51;15.90;99.90
9414;DHT22;4746;35.664;139.738;2023-03-12T16:33:22;15.90;99.90
9414;DHT22;4746;35.664;139.738;2023-03-12T16:35:50;15.90;99.90
9414;DHT22;4746;35.664;139.738;2023-03-12T16:38:18;15.90;99.90
9414;DHT22;4746;35.664;139.738;2023-03-12T16:40:47;15.90;99.90
9414;DHT22;4746;35.664;139.738;2023-03-12T16:43:22;16.00;99.90
9414;DHT22;4746;35.664;139.738;2023-03-12T16:45:52;15.90;99.90
9414;DHT22;4746;35.664;139.738;2023-03-12T16:48:21;15.90;99.90
9414;DHT22;4746;35.664;139.738;2023-03-12T16:50:55;16.00;99.90
9414;DHT22;4746;35.664;139.738;2023-03-12T16:53:24;15.90;99.90
9414;DHT22;4746;35.664;139.738;2023-03-12T16:55:59;16.00;99.90
9414;DHT22;4746;35.664;139.738;2023-03-12T16:58:28;15.90;99.90
9414;DHT22;4746;35.664;139.738;2023-03-12T17:00:56;15.90;99.90
9414;DHT22;4746;35.664;139.738;2023-03-12T17:03:35;15.90;99.90
9414;DHT22;4746;35.664;139.738;2023-03-12T17:06:05;15.90;99.90
9414;DHT22;4746;35.664;139.738;2023-03-12T17:08:33;15.90;99.90
9414;DHT22;4746;35.664;139.738;2023-03-12T17:11:01;15.90;99.90
9414;DHT22;4746;35.664;139.738;2023-03-12T17:13:37;15.90;99.90
9414;DHT22;4746;35.664;139.738;2023-03-12T17:16:05;15.90;99.90
9414;DHT22;4746;35.664;139.738;2023-03-12T17:18:33;15.90;99.90
9414;DHT22;4746;35.664;139.738;2023-03-12T17:21:00;15.90;99.90
9414;DHT22;4746;35.664;139.738;2023-03-12T17:23:28;15.90;99.90
9414;DHT22;4746;35.664;139.738;2023-03-12T17:25:55;15.90;99.90
9414;DHT22;4746;35.664;139.738;2023-03-12T17:28:23;15.90;99.90
9414;DHT22;4746;35.664;139.738;2023-03-12T17:30:51;15.90;99.90
9414;DHT22;4746;35.664;139.738;2023-03-12T17:33:19;15.90;99.90
9414;DHT22;4746;35.664;139.738;2023-03-12T17:35:59;15.90;99.90
9414;DHT22;4746;35.664;139.738;2023-03-12T17:38:29;15.90;99.90
9414;DHT22;4746;35.664;139.738;2023-03-12T17:40:58;16.00;99.90
9414;DHT22;4746;35.664;139.738;2023-03-12T17:43:26;16.00;99.90
9414;DHT22;4746;35.664;139.738;2023-03-12T17:45:54;15.90;99.90
9414;DHT22;4746;35.664;139.738;2023-03-12T17:48:22;15.90;99.90
9414;DHT22;4746;35.664;139.738;2023-03-12T17:50:50;15.90;99.90
9414;DHT22;4746;35.664;139.738;2023-03-12T17:53:17;15.80;99.90
9414;DHT22;4746;35.664;139.738;2023-03-12T17:55:46;15.90;99.90
9414;DHT22;4746;35.664;139.738;2023-03-12T17:58:14;15.90;99.90
9414;DHT22;4746;35.664;139.738;2023-03-12T18:00:41;15.90;99.90
9414;DHT22;4746;35.664;139.738;2023-03-12T18:03:09;15.80;99.90
9414;DHT22;4746;35.664;139.738;2023-03-12T18:05:39;15.80;99.90
9414;DHT22;4746;35.664;139.738;2023-03-12T18:08:09;15.90;99.90
9414;DHT22;4746;35.664;139.738;2023-03-12T18:10:40;15.90;99.90
9414;DHT22;4746;35.664;139.738;2023-03-12T18:13:17;15.90;99.90
9414;DHT22;4746;35.664;139.738;2023-03-12T18:15:51;15.90;99.90